Gadsden, Alabama
Current Conditions -  °F | °C
As of 5:15 PM on Saturday 25 Oct 2014 (Local Time) from KGAD Reporting Station
Clear Clear  
Wind Chill: 23°   Ceiling: Unl
Heat Index: 23°   Visibility: 10mi
Dew Point: 13°   Wind: 0mph
Humidity: 53%   Direction: NA
Pressure: 30.03"   Gusts: NA
Location:  34.01°N, 86.01°W
Report Text: KGAD 252215Z 00000KT 10SM CLR 23/13 A3003 RMK AO1
Loading
Personal Weather Stations






























Interactive Weather Map
Tropical Storm Tracking
New forecast layout! Learn more

10-Day Weather Forecast

Advertisements
Track Severe Weather on mobile